Time;durP1;ratioP1;P1;durP2;ratioP2;P2;SDS_P1;SDS_P2;PMS_P1;PMS_P2;Temp;Humidity;BMP_temperature;BMP_pressure;BME280_temperature;BME280_humidity;BME280_pressure;Samples;Min_cycle;Max_cycle;Signal;HPM_P1;HPM_P2
2022/12/03 00:00:47;;;;;;;;;36.00;26.00;;;;;5.99;73.11;101337.41;4863094;29;55615;-68
2022/12/03 00:03:12;;;;;;;;;39.00;33.75;;;;;5.95;72.81;101320.63;4864450;29;45320;-68
2022/12/03 00:05:37;;;;;;;;;40.00;32.50;;;;;5.92;72.35;101321.50;4864164;29;45397;-68
2022/12/03 00:08:03;;;;;;;;;43.00;35.25;;;;;5.93;73.48;101327.66;4863654;29;45317;-68
2022/12/03 00:10:28;;;;;;;;;32.50;29.00;;;;;6.02;73.29;101330.34;4864419;29;45494;-68
2022/12/03 00:12:53;;;;;;;;;39.50;34.75;;;;;6.00;73.24;101321.50;4862821;29;45386;-69
2022/12/03 00:15:19;;;;;;;;;36.00;31.25;;;;;6.03;73.14;101324.16;4846991;29;45588;-68
2022/12/03 00:17:44;;;;;;;;;31.75;29.50;;;;;6.08;72.03;101329.41;4862877;29;46093;-68
2022/12/03 00:20:17;;;;;;;;;36.75;31.00;;;;;6.04;72.52;101325.91;4864186;29;45393;-68
2022/12/03 00:22:42;;;;;;;;;37.25;28.00;;;;;5.99;72.70;101306.50;4862656;29;45477;-68
2022/12/03 00:25:08;;;;;;;;;37.50;32.75;;;;;6.08;72.58;101324.13;4863637;29;45319;-68
2022/12/03 00:27:33;;;;;;;;;29.75;23.25;;;;;6.04;71.95;101320.59;4864175;29;46044;-68
2022/12/03 00:29:59;;;;;;;;;36.75;32.25;;;;;6.05;72.04;101324.16;4863572;29;47281;-68
2022/12/03 00:32:24;;;;;;;;;42.50;32.50;;;;;5.98;72.45;101311.78;4846639;29;45703;-68
2022/12/03 00:34:49;;;;;;;;;45.75;32.50;;;;;6.01;72.68;101314.44;4863418;29;45531;-69
2022/12/03 00:37:15;;;;;;;;;32.25;26.50;;;;;6.03;72.32;101321.50;4863862;29;46449;-69
2022/12/03 00:39:40;;;;;;;;;33.50;32.00;;;;;5.96;72.09;101313.53;4863982;29;45378;-68
2022/12/03 00:42:05;;;;;;;;;29.75;26.50;;;;;6.05;72.75;101321.50;4844975;29;45485;-69
2022/12/03 00:44:30;;;;;;;;;39.50;35.75;;;;;6.07;72.62;101317.06;4863032;29;45380;-68
2022/12/03 00:46:56;;;;;;;;;30.75;26.75;;;;;6.11;72.42;101310.84;4862284;29;58912;-68
2022/12/03 00:49:21;;;;;;;;;34.25;28.25;;;;;6.07;72.48;101307.34;4863847;29;45402;-68
2022/12/03 00:51:46;;;;;;;;;32.50;30.00;;;;;6.11;72.47;101310.84;4846541;29;51626;-68
2022/12/03 00:54:12;;;;;;;;;37.50;28.25;;;;;6.14;72.85;101313.50;4852861;29;45463;-68
2022/12/03 00:56:37;;;;;;;;;37.75;34.00;;;;;6.14;73.22;101299.38;4848452;29;47897;-68
2022/12/03 00:59:02;;;;;;;;;32.00;29.25;;;;;6.21;72.47;101303.75;4866931;29;46108;-68
2022/12/03 01:01:28;;;;;;;;;29.25;23.25;;;;;6.18;71.99;101304.66;4865275;29;45416;-68
2022/12/03 01:03:53;;;;;;;;;41.25;32.25;;;;;6.13;71.42;101303.75;4866266;29;48563;-68
2022/12/03 01:06:18;;;;;;;;;37.25;30.25;;;;;6.12;72.09;101307.31;4866159;29;45375;-68
2022/12/03 01:08:43;;;;;;;;;32.25;27.50;;;;;6.11;71.98;101301.16;4866747;29;45704;-69
2022/12/03 01:11:36;;;;;;;;;34.75;29.25;;;;;6.17;72.54;101305.53;4866561;29;45321;-68
2022/12/03 01:13:54;;;;;;;;;37.25;33.75;;;;;6.17;71.32;101308.19;4865786;29;45246;-69
2022/12/03 01:16:19;;;;;;;;;40.25;36.25;;;;;6.15;72.28;101302.00;4865349;29;45520;-68
2022/12/03 01:18:45;;;;;;;;;32.00;27.25;;;;;6.11;72.26;101310.84;4866261;29;45286;-69
2022/12/03 01:21:10;;;;;;;;;35.25;29.50;;;;;6.16;71.81;101306.41;4849719;29;45297;-68
2022/12/03 01:23:36;;;;;;;;;32.00;24.75;;;;;6.12;71.71;101296.72;4866227;29;45550;-68
2022/12/03 01:26:01;;;;;;;;;33.50;28.25;;;;;6.14;71.77;101308.19;4866553;29;48517;-68
2022/12/03 01:28:28;;;;;;;;;33.50;27.25;;;;;6.11;71.58;101302.91;4866595;29;45378;-68
2022/12/03 01:33:37;;;;;;;;;34.75;32.50;;;;;6.12;71.96;101305.53;4863864;29;45382;-68
2022/12/03 01:36:03;;;;;;;;;26.75;23.25;;;;;6.15;72.39;101303.75;4866061;29;49680;-68
2022/12/03 01:38:28;;;;;;;;;40.50;32.00;;;;;6.16;71.74;101303.75;4849451;29;45394;-68
2022/12/03 01:40:53;;;;;;;;;34.25;30.50;;;;;6.21;72.21;101309.03;4849656;29;45600;-68
2022/12/03 01:43:19;;;;;;;;;37.00;31.00;;;;;6.23;71.65;101305.50;4865866;29;45320;-68
2022/12/03 01:45:44;;;;;;;;;38.00;33.00;;;;;6.25;71.31;101303.72;4847336;29;47189;-68
2022/12/03 01:48:15;;;;;;;;;26.00;22.25;;;;;6.26;71.54;101299.28;4865822;29;45459;-68
2022/12/03 01:50:42;;;;;;;;;30.00;26.75;;;;;6.30;71.91;101309.88;4866415;29;45446;-69
2022/12/03 01:53:13;;;;;;;;;29.50;26.50;;;;;6.28;71.17;101302.81;4862863;29;45577;-68
2022/12/03 01:55:39;;;;;;;;;30.00;28.00;;;;;6.25;71.34;101302.84;4857781;29;46188;-69
2022/12/03 01:58:05;;;;;;;;;31.00;28.25;;;;;6.29;71.41;101312.53;4865975;29;45768;-68
2022/12/03 02:00:30;;;;;;;;;37.00;27.50;;;;;6.22;71.07;101298.44;4864866;29;45414;-68
2022/12/03 02:02:59;;;;;;;;;28.75;21.00;;;;;6.22;71.14;101305.50;4864201;29;45488;-68
2022/12/03 02:05:27;;;;;;;;;37.50;30.75;;;;;6.16;71.25;101306.41;4864779;29;45564;-68
2022/12/03 02:07:54;;;;;;;;;40.25;29.50;;;;;6.12;71.69;101313.50;4865246;29;45354;-68
2022/12/03 02:10:26;;;;;;;;;42.00;35.00;;;;;6.12;70.78;101304.66;4866289;29;45327;-68
2022/12/03 02:13:03;;;;;;;;;33.25;31.25;;;;;6.14;71.04;101302.88;4865390;29;45413;-68
2022/12/03 02:15:29;;;;;;;;;35.50;31.00;;;;;6.16;70.93;101313.47;4848629;29;47153;-68
2022/12/03 02:17:55;;;;;;;;;27.00;23.25;;;;;6.17;70.90;101307.31;4868499;29;45394;-68
2022/12/03 02:20:21;;;;;;;;;24.25;18.50;;;;;6.16;71.05;101306.41;4866069;29;45382;-68
2022/12/03 02:23:09;;;;;;;;;35.75;31.75;;;;;6.20;71.43;101304.63;4865454;29;45253;-68
2022/12/03 02:25:35;;;;;;;;;35.00;32.25;;;;;6.26;71.61;101309.88;4859354;29;46070;-68
2022/12/03 02:28:02;;;;;;;;;36.75;28.75;;;;;6.28;70.94;101302.81;4865770;29;45943;-68
2022/12/03 02:30:29;;;;;;;;;41.50;31.00;;;;;6.30;71.55;101309.88;4865488;29;45507;-68
2022/12/03 02:32:55;;;;;;;;;34.75;33.75;;;;;6.29;71.00;101301.94;4864563;29;45503;-68
2022/12/03 02:35:24;;;;;;;;;36.00;30.25;;;;;6.24;70.79;101296.63;4865433;29;45314;-68
2022/12/03 02:37:53;;;;;;;;;34.50;31.75;;;;;6.27;71.36;101301.06;4865431;29;45438;-68
2022/12/03 02:40:23;;;;;;;;;33.00;31.00;;;;;6.25;70.90;101297.53;4869510;29;45354;-68
2022/12/03 02:42:52;;;;;;;;;38.00;30.50;;;;;6.23;70.45;101305.50;4870749;29;45548;-68
2022/12/03 02:45:21;;;;;;;;;38.50;35.75;;;;;6.20;71.20;101296.66;4862055;29;45388;-68
2022/12/03 02:48:07;;;;;;;;;37.00;29.75;;;;;6.21;70.92;101303.75;4866245;29;45312;-69
2022/12/03 02:50:36;;;;;;;;;41.00;34.50;;;;;6.19;70.87;101294.91;4865664;29;45384;-68
2022/12/03 02:53:06;;;;;;;;;29.50;27.25;;;;;6.14;71.07;101286.97;4865488;29;45564;-68
2022/12/03 02:55:34;;;;;;;;;35.75;30.75;;;;;6.22;71.40;101297.56;4838604;29;47341;-68
2022/12/03 02:58:01;;;;;;;;;48.25;39.00;;;;;6.20;71.50;101292.25;4863445;29;45378;-68
2022/12/03 03:00:27;;;;;;;;;41.25;32.75;;;;;6.22;71.23;101293.13;4865323;29;45438;-68
2022/12/03 03:02:52;;;;;;;;;42.00;31.75;;;;;6.18;71.22;101288.75;4864765;29;45506;-68
2022/12/03 03:05:21;;;;;;;;;34.75;23.25;;;;;6.21;71.83;101294.00;4866050;29;46428;-68
2022/12/03 03:07:47;;;;;;;;;39.75;35.50;;;;;6.19;71.57;101292.25;4848176;29;46021;-68
2022/12/03 03:10:15;;;;;;;;;41.00;37.75;;;;;6.20;71.70;101292.25;4865237;29;45450;-68
2022/12/03 03:12:40;;;;;;;;;41.25;38.00;;;;;6.18;71.91;101296.69;4864571;29;45431;-68
2022/12/03 03:15:08;;;;;;;;;41.00;37.00;;;;;6.20;71.75;101299.31;4864618;29;45584;-68
2022/12/03 03:17:33;;;;;;;;;46.50;37.50;;;;;6.15;72.12;101280.81;4878659;29;45413;-68
2022/12/03 03:19:58;;;;;;;;;42.00;36.50;;;;;6.18;71.90;101286.09;4874037;29;45298;-69
2022/12/03 03:22:36;;;;;;;;;36.75;28.25;;;;;6.19;72.07;101281.66;4865812;29;45403;-68
2022/12/03 03:25:03;;;;;;;;;32.50;31.25;;;;;6.24;71.06;101288.69;4847880;29;48416;-68
2022/12/03 03:27:29;;;;;;;;;45.50;38.50;;;;;6.25;71.92;101297.53;4864172;29;45719;-68
2022/12/03 03:29:56;;;;;;;;;42.00;37.50;;;;;6.19;71.16;101290.47;4864755;29;45405;-68
2022/12/03 03:32:22;;;;;;;;;39.25;31.50;;;;;6.19;71.43;101298.44;4878768;29;46120;-68
2022/12/03 03:34:47;;;;;;;;;36.75;34.75;;;;;6.18;71.64;101296.69;4864802;29;46340;-68
2022/12/03 03:37:13;;;;;;;;;37.50;29.75;;;;;6.13;71.04;101287.84;4864708;29;45542;-68
2022/12/03 03:39:38;;;;;;;;;37.75;32.75;;;;;6.10;71.81;101295.84;4864799;29;45498;-69
2022/12/03 03:42:04;;;;;;;;;37.75;33.25;;;;;6.13;71.63;101293.16;4864280;29;45307;-68
2022/12/03 03:44:29;;;;;;;;;38.50;36.25;;;;;6.14;71.54;101292.28;4864068;29;45711;-68
2022/12/03 03:46:55;;;;;;;;;46.25;35.75;;;;;6.11;72.06;101290.53;4864717;29;45381;-68
2022/12/03 03:49:21;;;;;;;;;38.00;33.50;;;;;6.13;71.32;101290.50;4873671;29;45394;-68
2022/12/03 03:51:46;;;;;;;;;37.75;35.25;;;;;6.07;70.98;101294.09;4868133;29;45340;-68
2022/12/03 03:54:12;;;;;;;;;39.00;33.25;;;;;6.09;71.78;101292.31;4853433;29;46204;-68
2022/12/03 03:56:38;;;;;;;;;37.50;34.50;;;;;6.09;71.41;101297.59;4863800;29;45946;-68
2022/12/03 03:59:03;;;;;;;;;36.50;34.25;;;;;6.03;70.52;101300.31;4863764;29;45507;-69
2022/12/03 04:01:29;;;;;;;;;38.75;23.75;;;;;5.99;71.48;101302.97;4864309;29;45511;-68
2022/12/03 04:03:56;;;;;;;;;42.75;35.50;;;;;5.92;70.98;101287.06;4865039;29;46080;-68
2022/12/03 04:06:21;;;;;;;;;37.00;34.50;;;;;5.94;70.97;101297.66;4864123;29;45502;-68
2022/12/03 04:08:46;;;;;;;;;46.50;38.25;;;;;5.89;71.68;101291.50;4864663;29;46050;-68
2022/12/03 04:13:56;;;;;;;;;38.00;36.25;;;;;5.96;71.54;101300.28;4863778;29;45405;-68
2022/12/03 04:16:21;;;;;;;;;32.25;31.00;;;;;5.93;71.06;101280.88;4864155;29;46827;-68
2022/12/03 04:18:46;;;;;;;;;40.50;36.50;;;;;5.89;71.55;101271.16;4863620;29;45519;-68
2022/12/03 04:24:00;;;;;;;;;39.25;35.00;;;;;6.00;71.04;101286.16;4863832;29;46053;-68
2022/12/03 04:29:10;;;;;;;;;37.00;31.50;;;;;5.99;70.82;101281.75;4861519;29;45337;-68
2022/12/03 04:37:03;;;;;;;;;35.50;30.75;;;;;6.10;70.61;101270.22;4866859;29;45781;-68
2022/12/03 04:39:29;;;;;;;;;36.25;33.50;;;;;6.10;70.38;101272.00;4867392;29;45327;-68
2022/12/03 04:41:54;;;;;;;;;36.50;30.25;;;;;6.07;71.03;101275.53;4866978;29;45324;-68
2022/12/03 04:44:32;;;;;;;;;42.25;35.25;;;;;6.04;70.78;101264.94;4849919;29;47889;-69
2022/12/03 04:46:57;;;;;;;;;46.25;34.75;;;;;6.02;70.49;101266.72;4865470;29;45581;-68
2022/12/03 04:49:40;;;;;;;;;39.25;35.50;;;;;6.06;70.60;101273.75;4820453;29;45492;-68
2022/12/03 04:52:06;;;;;;;;;34.25;29.50;;;;;6.04;70.96;101272.03;4866878;29;45360;-68
2022/12/03 04:54:31;;;;;;;;;37.75;33.50;;;;;6.06;70.74;101270.22;4860222;29;45504;-68
2022/12/03 04:56:57;;;;;;;;;32.25;27.50;;;;;6.06;71.00;101270.22;4866273;29;45420;-68
2022/12/03 04:59:22;;;;;;;;;48.25;37.50;;;;;6.08;70.33;101265.81;4865723;29;45347;-68
2022/12/03 05:01:48;;;;;;;;;46.75;39.25;;;;;6.12;70.31;101265.78;4866215;29;45453;-68
2022/12/03 05:04:14;;;;;;;;;29.25;23.75;;;;;6.12;71.20;101271.09;4866656;29;45427;-68
2022/12/03 05:06:40;;;;;;;;;50.25;36.50;;;;;6.06;70.45;101260.50;4866130;29;45417;-68
2022/12/03 05:09:06;;;;;;;;;36.25;30.00;;;;;6.11;70.98;101257.84;4864754;29;45437;-68
2022/12/03 05:11:31;;;;;;;;;40.00;35.25;;;;;6.11;70.47;101264.03;4866894;29;45398;-68
2022/12/03 05:13:56;;;;;;;;;32.25;28.50;;;;;6.12;69.94;101267.56;4865248;29;45568;-68
2022/12/03 05:16:22;;;;;;;;;32.00;30.50;;;;;6.07;70.24;101261.41;4866398;29;51071;-68
2022/12/03 05:18:47;;;;;;;;;39.25;30.50;;;;;6.11;70.06;101272.00;4866195;29;45242;-68
2022/12/03 05:21:12;;;;;;;;;43.00;38.00;;;;;6.08;70.00;101256.09;4849723;29;45583;-68
2022/12/03 05:23:38;;;;;;;;;35.00;27.75;;;;;6.11;70.75;101258.75;4865361;29;45718;-68
2022/12/03 05:26:03;;;;;;;;;36.25;31.75;;;;;6.17;70.60;101264.91;4866536;29;45434;-68
2022/12/03 05:28:28;;;;;;;;;40.00;33.75;;;;;6.18;70.83;101263.97;4865873;29;45330;-68
2022/12/03 05:30:53;;;;;;;;;37.50;28.75;;;;;6.24;69.95;101263.97;4848837;29;45989;-68
2022/12/03 05:33:19;;;;;;;;;35.25;28.50;;;;;6.24;70.24;101269.25;4866150;29;52667;-68
2022/12/03 05:35:45;;;;;;;;;27.50;25.50;;;;;6.23;69.85;101268.38;4865366;29;45483;-68
2022/12/03 05:38:10;;;;;;;;;38.25;30.75;;;;;6.16;69.52;101269.28;4866139;29;45329;-69
2022/12/03 05:40:36;;;;;;;;;42.25;35.75;;;;;6.15;71.08;101267.56;4866069;29;45436;-68
2022/12/03 05:43:01;;;;;;;;;29.75;23.75;;;;;6.16;70.13;101271.94;4866217;29;45495;-68
2022/12/03 05:45:35;;;;;;;;;28.50;26.50;;;;;6.12;69.40;101259.59;4866177;29;45315;-68
2022/12/03 05:48:02;;;;;;;;;40.25;34.50;;;;;6.09;69.70;101257.84;4849135;29;46550;-68
2022/12/03 05:50:29;;;;;;;;;26.00;23.00;;;;;6.04;69.86;101264.94;4865791;29;45350;-68
2022/12/03 05:52:55;;;;;;;;;34.00;25.75;;;;;6.01;69.96;101258.78;4864737;29;45418;-68
2022/12/03 05:55:21;;;;;;;;;42.00;32.50;;;;;5.96;70.12;101261.44;4855659;29;45527;-68
2022/12/03 05:57:46;;;;;;;;;29.00;26.50;;;;;6.01;69.26;101262.31;4864993;29;45515;-68
2022/12/03 06:00:15;;;;;;;;;30.75;28.50;;;;;6.05;70.09;101263.19;4866107;29;45397;-68
2022/12/03 06:02:41;;;;;;;;;37.00;29.75;;;;;5.91;69.76;101242.00;4865215;29;46084;-69
2022/12/03 06:05:07;;;;;;;;;30.00;25.50;;;;;6.05;69.77;101268.50;4865641;29;45368;-68
2022/12/03 06:07:33;;;;;;;;;32.00;30.75;;;;;5.99;69.95;101253.47;4860034;29;45394;-68
2022/12/03 06:09:58;;;;;;;;;27.50;26.25;;;;;5.98;70.12;101262.34;4865994;29;45388;-68
2022/12/03 06:12:23;;;;;;;;;33.75;28.25;;;;;5.95;70.26;101262.31;4865568;29;45345;-68
2022/12/03 06:14:49;;;;;;;;;33.25;27.75;;;;;5.93;70.44;101254.38;4865804;29;45364;-68
2022/12/03 06:17:14;;;;;;;;;32.00;27.75;;;;;5.89;69.67;101257.91;4865535;29;45530;-68
2022/12/03 06:19:39;;;;;;;;;33.00;25.75;;;;;5.80;69.78;101247.38;4848925;29;45806;-68
2022/12/03 06:22:05;;;;;;;;;35.25;27.50;;;;;5.88;70.35;101264.13;4864707;29;52394;-68
2022/12/03 06:24:30;;;;;;;;;29.75;22.50;;;;;5.90;70.65;101254.38;4865534;29;45461;-68
2022/12/03 06:26:55;;;;;;;;;27.75;27.50;;;;;5.95;69.58;101257.03;4864742;29;45470;-68
2022/12/03 06:29:21;;;;;;;;;29.50;27.25;;;;;5.93;70.42;101253.47;4864889;29;45726;-68
2022/12/03 06:31:46;;;;;;;;;22.50;19.25;;;;;5.98;70.36;101262.34;4864156;29;48057;-69
2022/12/03 06:34:11;;;;;;;;;30.00;26.50;;;;;5.96;69.69;101253.50;4865665;29;45378;-68
2022/12/03 06:36:37;;;;;;;;;30.75;29.25;;;;;5.92;70.25;101249.09;4864521;29;45401;-69
2022/12/03 06:39:02;;;;;;;;;27.75;24.75;;;;;5.91;70.11;101239.34;4865748;29;45313;-68
2022/12/03 06:41:27;;;;;;;;;39.25;27.50;;;;;6.01;70.29;101256.13;4865206;29;45306;-68
2022/12/03 06:43:53;;;;;;;;;27.50;23.75;;;;;5.99;70.28;101247.31;4865525;29;45492;-68
2022/12/03 06:46:18;;;;;;;;;28.50;23.50;;;;;6.05;70.03;101264.06;4865068;29;45363;-68
2022/12/03 06:48:43;;;;;;;;;25.25;22.00;;;;;6.07;69.65;101266.72;4865271;29;45393;-69
2022/12/03 06:51:09;;;;;;;;;30.00;25.50;;;;;6.02;69.47;101250.81;4864668;29;45473;-69
2022/12/03 06:53:34;;;;;;;;;30.50;24.25;;;;;6.05;69.92;101260.53;4857829;29;45336;-68
2022/12/03 06:55:59;;;;;;;;;29.50;25.25;;;;;6.07;69.50;101272.00;4859957;29;45395;-68
2022/12/03 06:58:25;;;;;;;;;23.25;20.00;;;;;6.05;69.33;101266.72;4843696;29;45500;-68
2022/12/03 07:00:50;;;;;;;;;25.50;22.50;;;;;6.07;69.00;101274.66;4864873;29;45306;-68
2022/12/03 07:03:15;;;;;;;;;28.75;26.50;;;;;6.09;69.64;101260.50;4865352;29;45307;-68
2022/12/03 07:05:41;;;;;;;;;28.50;24.25;;;;;6.09;69.47;101267.56;4848154;29;45315;-69
2022/12/03 07:08:06;;;;;;;;;34.75;26.00;;;;;6.04;68.92;101257.00;4864115;29;45299;-69
2022/12/03 07:10:31;;;;;;;;;21.25;18.75;;;;;5.98;68.65;101259.69;4863856;29;45340;-69
2022/12/03 07:12:57;;;;;;;;;25.75;22.75;;;;;5.98;68.63;101261.44;4864602;29;45510;-69
2022/12/03 07:15:22;;;;;;;;;30.75;25.00;;;;;5.91;69.15;101256.16;4848179;29;45461;-69
2022/12/03 07:17:47;;;;;;;;;23.75;21.75;;;;;5.96;68.49;101264.09;4864730;29;45584;-69
2022/12/03 07:20:13;;;;;;;;;25.00;22.50;;;;;5.96;68.63;101265.84;4864568;29;45405;-69
2022/12/03 07:22:38;;;;;;;;;19.50;18.50;;;;;5.88;68.21;101252.63;4847878;29;45445;-68
2022/12/03 07:25:04;;;;;;;;;31.00;23.00;;;;;5.86;68.24;101257.91;4863847;29;45403;-69
2022/12/03 07:27:30;;;;;;;;;23.50;22.25;;;;;5.87;69.18;101265.00;4863560;29;45357;-68
2022/12/03 07:29:55;;;;;;;;;27.00;24.75;;;;;5.93;69.22;101272.94;4846640;29;48697;-68
2022/12/03 07:32:20;;;;;;;;;29.50;22.50;;;;;5.92;68.87;101267.63;4863933;29;45473;-69
2022/12/03 07:34:46;;;;;;;;;30.50;23.25;;;;;5.92;68.85;101273.81;4864129;29;45797;-69
2022/12/03 07:37:11;;;;;;;;;30.25;22.25;;;;;5.85;68.48;101266.78;4862467;29;46524;-69
2022/12/03 07:39:36;;;;;;;;;27.50;23.25;;;;;5.82;68.74;101260.63;4862375;29;45426;-69
2022/12/03 07:42:02;;;;;;;;;15.50;14.00;;;;;5.86;68.19;101271.16;4845242;29;50742;-69
2022/12/03 07:44:30;;;;;;;;;28.00;23.25;;;;;5.83;68.62;101271.22;4857047;29;45563;-69
2022/12/03 07:46:55;;;;;;;;;22.75;19.00;;;;;5.76;68.07;101266.81;4846910;29;45713;-68
2022/12/03 07:49:20;;;;;;;;;24.25;22.25;;;;;5.83;68.88;101280.91;4862420;29;45393;-68
2022/12/03 07:51:52;;;;;;;;;26.25;22.75;;;;;5.78;68.73;101274.75;4863360;29;51188;-69
2022/12/03 07:54:18;;;;;;;;;20.00;18.50;;;;;5.82;68.68;101285.34;4864414;29;45430;-68
2022/12/03 07:56:44;;;;;;;;;26.50;23.00;;;;;5.79;68.67;101280.03;4860797;29;45508;-70
2022/12/03 07:59:09;;;;;;;;;25.50;22.25;;;;;5.82;68.86;101287.09;4861914;29;45396;-70
2022/12/03 08:01:34;;;;;;;;;24.50;19.00;;;;;5.80;68.58;101276.50;4860047;29;54472;-71
2022/12/03 08:04:00;;;;;;;;;23.75;19.25;;;;;5.82;67.91;101282.69;4864961;29;45466;-70
2022/12/03 08:06:25;;;;;;;;;22.00;22.00;;;;;5.79;67.54;101281.81;4866811;29;45319;-71
2022/12/03 08:08:50;;;;;;;;;24.00;20.75;;;;;5.77;68.83;101278.31;4866572;29;46187;-70
2022/12/03 08:11:16;;;;;;;;;23.00;21.00;;;;;5.77;68.51;101273.88;4849121;29;45405;-70
2022/12/03 08:13:42;;;;;;;;;21.00;17.25;;;;;5.74;68.09;101273.88;4866326;29;45513;-70
2022/12/03 08:16:15;;;;;;;;;27.25;24.00;;;;;5.79;67.78;101281.81;4867131;29;46483;-70
2022/12/03 08:18:40;;;;;;;;;21.00;18.50;;;;;5.77;67.99;101278.31;4867179;29;45339;-71
2022/12/03 08:21:09;;;;;;;;;21.75;18.75;;;;;5.78;68.32;101274.75;4866721;29;45883;-71
2022/12/03 08:23:35;;;;;;;;;23.25;21.75;;;;;5.80;68.55;101272.97;4865985;29;45396;-71
2022/12/03 08:26:01;;;;;;;;;24.50;21.25;;;;;5.77;68.02;101267.72;4866111;29;45596;-71
2022/12/03 08:28:27;;;;;;;;;30.25;23.50;;;;;5.81;68.54;101267.66;4867330;29;46168;-71
2022/12/03 08:31:11;;;;;;;;;16.50;10.75;;;;;5.85;68.95;101276.50;4866292;29;45669;-71
2022/12/03 08:33:38;;;;;;;;;33.75;28.75;;;;;5.87;68.71;101266.78;4864547;29;45515;-72
2022/12/03 08:36:19;;;;;;;;;21.25;18.50;;;;;5.91;68.96;101266.75;4867176;29;45278;-71
2022/12/03 08:38:50;;;;;;;;;24.75;22.00;;;;;5.93;68.37;101266.72;4838616;29;46836;-70
2022/12/03 08:42:40;;;;;;;;;26.75;20.75;;;;;5.91;67.85;101260.56;4852414;29;45610;-69
2022/12/03 08:44:10;;;;;;;;;34.25;26.00;;;;;5.87;68.55;101259.69;4866569;29;45419;-70
2022/12/03 08:46:35;;;;;;;;;22.75;19.75;;;;;5.87;68.76;101270.28;4865889;29;45360;-70
2022/12/03 08:49:00;;;;;;;;;24.50;20.50;;;;;5.94;68.36;101269.38;4864405;29;45872;-70
2022/12/03 08:51:26;;;;;;;;;13.25;6.75;;;;;5.98;68.41;101272.03;4865773;29;45288;-70
2022/12/03 08:53:58;;;;;;;;;24.00;21.75;;;;;6.00;67.98;101273.81;4863456;29;46060;-71
2022/12/03 08:56:25;;;;;;;;;23.25;19.50;;;;;6.00;68.28;101275.56;4865463;29;45376;-71
2022/12/03 08:58:58;;;;;;;;;26.50;25.00;;;;;5.96;68.96;101264.09;4865818;29;46246;-70
2022/12/03 09:01:31;;;;;;;;;20.00;18.50;;;;;6.00;68.40;101267.59;4863234;29;45698;-70
2022/12/03 09:04:14;;;;;;;;;23.50;23.00;;;;;6.01;68.58;101272.03;4864207;29;45503;-70
2022/12/03 09:06:39;;;;;;;;;19.25;11.25;;;;;5.97;68.69;101275.59;4865611;29;45677;-71
2022/12/03 09:09:05;;;;;;;;;19.50;18.75;;;;;6.01;68.04;101279.97;4865081;29;45453;-71
2022/12/03 09:11:30;;;;;;;;;29.00;23.25;;;;;5.96;67.96;101260.53;4864389;29;46135;-71
2022/12/03 09:13:55;;;;;;;;;26.50;26.50;;;;;6.01;68.54;101278.19;4866370;29;46684;-70
2022/12/03 09:16:20;;;;;;;;;28.75;27.25;;;;;5.98;68.14;101264.09;4863797;29;45623;-70
2022/12/03 09:18:46;;;;;;;;;24.00;21.75;;;;;5.99;68.08;101264.09;4865354;29;46291;-71
2022/12/03 09:21:11;;;;;;;;;34.50;22.75;;;;;6.06;68.08;101278.19;4865074;29;45834;-70
2022/12/03 09:23:36;;;;;;;;;29.25;23.00;;;;;6.02;67.38;101265.84;4866055;29;45476;-71
2022/12/03 09:26:02;;;;;;;;;19.50;17.25;;;;;6.04;67.47;101270.25;4865361;29;45476;-69
2022/12/03 09:28:27;;;;;;;;;29.00;20.75;;;;;6.04;68.09;101283.50;4848247;29;46227;-71
2022/12/03 09:30:52;;;;;;;;;28.75;25.50;;;;;6.00;67.97;101275.56;4860469;29;45643;-73
2022/12/03 09:33:18;;;;;;;;;18.00;14.75;;;;;6.00;67.18;101276.47;4865723;29;45347;-73
2022/12/03 09:35:43;;;;;;;;;26.00;24.50;;;;;5.96;67.37;101282.66;4866386;29;45625;-70
2022/12/03 09:38:09;;;;;;;;;24.50;18.50;;;;;5.95;67.22;101283.53;4849369;29;46928;-70
2022/12/03 09:40:35;;;;;;;;;21.50;19.50;;;;;5.88;67.78;101276.47;4866228;29;45501;-70
2022/12/03 09:43:00;;;;;;;;;27.50;22.25;;;;;5.86;68.18;101271.16;4865432;29;45458;-71
2022/12/03 09:45:25;;;;;;;;;23.75;22.75;;;;;5.84;68.42;101269.44;4848633;29;45409;-72
2022/12/03 09:47:51;;;;;;;;;34.00;28.00;;;;;5.86;67.59;101267.66;4849158;29;46709;-71
2022/12/03 09:50:23;;;;;;;;;28.75;25.75;;;;;5.89;67.61;101268.50;4866247;29;45536;-69
2022/12/03 09:52:50;;;;;;;;;20.50;18.75;;;;;5.85;68.13;101255.31;4849175;29;45351;-70
2022/12/03 09:55:19;;;;;;;;;20.00;17.50;;;;;5.94;67.41;101274.66;4866036;29;45384;-69
2022/12/03 09:57:45;;;;;;;;;22.00;20.75;;;;;5.96;68.18;101265.84;4866145;29;45410;-71
2022/12/03 10:00:15;;;;;;;;;18.00;16.00;;;;;5.96;67.67;101265.84;4865718;29;45556;-71
2022/12/03 10:02:41;;;;;;;;;17.75;17.75;;;;;5.91;67.48;101248.22;4866401;29;45579;-71
2022/12/03 10:05:07;;;;;;;;;17.50;16.50;;;;;5.88;67.34;101244.66;4862227;29;45462;-68
2022/12/03 10:07:33;;;;;;;;;20.00;17.00;;;;;5.91;67.86;101249.97;4846821;29;46213;-70
2022/12/03 10:09:58;;;;;;;;;21.00;20.25;;;;;5.98;68.41;101251.75;4861189;29;45597;-69
2022/12/03 10:12:24;;;;;;;;;30.75;26.25;;;;;5.96;67.77;101242.91;4860508;29;45583;-69
2022/12/03 10:14:50;;;;;;;;;23.25;18.50;;;;;6.02;68.23;101247.31;4860214;29;46556;-69
2022/12/03 10:17:16;;;;;;;;;0.50;0.00;;;;;6.06;67.55;101254.34;4860659;29;45781;-68
2022/12/03 10:19:41;;;;;;;;;26.75;26.00;;;;;6.09;68.09;101246.38;4860399;29;45645;-69
2022/12/03 10:22:07;;;;;;;;;28.50;23.00;;;;;6.14;67.49;101241.91;4861923;29;45601;-68
2022/12/03 10:24:35;;;;;;;;;24.00;19.75;;;;;6.11;67.50;101226.03;4861355;29;45777;-68
2022/12/03 10:27:19;;;;;;;;;25.25;22.25;;;;;6.10;68.19;101233.09;4860766;29;46696;-68
2022/12/03 10:29:54;;;;;;;;;20.25;19.25;;;;;6.08;67.66;101226.94;4861017;29;45672;-68
2022/12/03 10:32:25;;;;;;;;;26.25;21.50;;;;;6.09;67.64;101231.34;4861930;29;45848;-68
2022/12/03 10:35:06;;;;;;;;;27.00;23.00;;;;;6.13;67.20;101226.88;4845077;29;45744;-68
2022/12/03 10:37:31;;;;;;;;;29.25;21.00;;;;;6.04;67.13;101213.72;4855081;29;46175;-69
2022/12/03 10:40:08;;;;;;;;;27.00;26.00;;;;;6.12;67.88;101238.41;4853845;29;45251;-72
2022/12/03 10:42:36;;;;;;;;;22.50;18.25;;;;;6.09;67.28;101234.00;4860237;29;45620;-68
2022/12/03 10:45:16;;;;;;;;;26.50;19.50;;;;;6.08;67.12;101232.25;4862813;29;45500;-68
2022/12/03 10:48:15;;;;;;;;;34.00;30.00;;;;;6.09;67.50;101233.13;5064712;27;45493;-68
2022/12/03 10:51:02;;;;;;;;;27.50;25.75;;;;;6.15;67.81;101227.78;5034639;28;45545;-68
2022/12/03 10:53:30;;;;;;;;;22.25;20.25;;;;;6.16;67.08;101229.53;5028647;28;45539;-67
2022/12/03 10:55:58;;;;;;;;;17.75;17.75;;;;;6.14;67.92;101228.66;5031760;28;45509;-71
2022/12/03 10:58:44;;;;;;;;;22.75;18.50;;;;;6.14;67.59;101226.00;5034284;28;45551;-70
2022/12/03 11:01:16;;;;;;;;;21.75;18.75;;;;;6.09;67.05;101223.38;5027225;28;45661;-70
2022/12/03 11:03:41;;;;;;;;;27.00;20.25;;;;;6.01;67.71;101205.78;5029219;28;45321;-69
2022/12/03 11:06:15;;;;;;;;;24.25;18.75;;;;;5.97;67.50;101212.00;5033845;28;45408;-69
2022/12/03 11:08:43;;;;;;;;;20.75;18.00;;;;;5.93;67.35;101198.72;5035008;28;46057;-69
2022/12/03 11:11:26;;;;;;;;;30.00;24.50;;;;;6.01;67.47;101216.38;5035293;28;45317;-69
2022/12/03 11:13:53;;;;;;;;;25.00;19.75;;;;;6.00;67.91;101202.25;5032327;28;45552;-68
2022/12/03 11:16:39;;;;;;;;;17.00;16.00;;;;;6.00;67.58;101204.00;5024346;28;45542;-69
2022/12/03 11:19:11;;;;;;;;;26.75;21.50;;;;;6.04;67.72;101205.75;5016911;28;47162;-68
2022/12/03 11:22:03;;;;;;;;;25.00;23.50;;;;;6.04;67.37;101198.69;5034944;28;45781;-69
2022/12/03 11:24:31;;;;;;;;;27.00;23.75;;;;;6.02;67.43;101189.88;5029632;28;45795;-69
2022/12/03 11:26:57;;;;;;;;;26.25;22.00;;;;;6.02;67.63;101200.47;5024659;28;45738;-70
2022/12/03 11:30:00;;;;;;;;;27.50;21.00;;;;;6.06;68.14;101194.25;5028640;28;45395;-70
2022/12/03 11:32:59;;;;;;;;;31.50;27.25;;;;;6.08;67.63;101195.13;5028437;28;45531;-71
2022/12/03 11:35:35;;;;;;;;;29.25;23.75;;;;;6.09;68.07;101194.22;5019629;28;45515;-71